createdAt,value
2019-02-06T00:00:33.627Z,25.95
2019-02-06T00:03:00.727Z,21.85
2019-02-06T00:05:27.242Z,29.30
2019-02-06T00:07:53.768Z,25.17
2019-02-06T00:10:20.277Z,27.05
2019-02-06T00:12:46.791Z,26.70
2019-02-06T00:15:13.353Z,28.62
2019-02-06T00:17:39.833Z,26.40
2019-02-06T00:20:07.061Z,31.37
2019-02-06T00:22:33.587Z,27.22
2019-02-06T00:25:00.583Z,27.58
2019-02-06T00:27:27.389Z,29.57
2019-02-06T00:29:54.208Z,28.17
2019-02-06T00:32:22.111Z,24.10
2019-02-06T00:34:48.724Z,22.65
2019-02-06T00:37:15.500Z,25.15
2019-02-06T00:39:42.024Z,30.65
2019-02-06T00:42:08.567Z,35.08
2019-02-06T00:44:36.289Z,33.28
2019-02-06T00:47:03.093Z,29.23
2019-02-06T00:49:29.700Z,24.43
2019-02-06T00:51:56.306Z,24.80
2019-02-06T00:54:22.841Z,27.42
2019-02-06T00:56:49.349Z,26.93
2019-02-06T00:59:16.048Z,32.55
2019-02-06T01:01:42.831Z,30.77
2019-02-06T01:04:09.703Z,36.88
2019-02-06T01:06:36.814Z,23.62
2019-02-06T01:09:06.631Z,39.80
2019-02-06T01:11:33.564Z,26.73
2019-02-06T01:14:00.117Z,34.25
2019-02-06T01:16:27.004Z,32.25
2019-02-06T01:18:53.908Z,33.18
2019-02-06T01:21:20.935Z,29.25
2019-02-06T01:23:47.714Z,31.40
2019-02-06T01:26:14.320Z,29.30
2019-02-06T01:28:41.144Z,33.30
2019-02-06T01:31:08.807Z,31.97
2019-02-06T01:33:35.453Z,39.30
2019-02-06T01:36:01.980Z,34.58
2019-02-06T01:38:28.491Z,41.77
2019-02-06T01:40:55.327Z,34.25
2019-02-06T01:43:21.833Z,31.62
2019-02-06T01:45:48.354Z,34.18
2019-02-06T01:48:14.871Z,33.00
2019-02-06T01:50:41.466Z,33.38
2019-02-06T01:53:07.965Z,34.03
2019-02-06T01:55:34.595Z,38.58
2019-02-06T01:58:02.231Z,29.10
2019-02-06T02:00:29.059Z,28.30
2019-02-06T02:02:55.782Z,26.37
2019-02-06T02:05:22.505Z,39.60
2019-02-06T02:07:49.939Z,40.45
2019-02-06T02:10:17.657Z,29.40
2019-02-06T02:12:44.363Z,29.92
2019-02-06T02:15:18.083Z,33.95
2019-02-06T02:17:45.260Z,27.30
2019-02-06T02:20:15.371Z,33.28
2019-02-06T02:22:42.217Z,36.38
2019-02-06T02:25:09.331Z,33.67
2019-02-06T02:27:36.204Z,28.10
2019-02-06T02:30:07.817Z,24.55
2019-02-06T02:32:34.322Z,19.07
2019-02-06T02:35:00.847Z,23.35
2019-02-06T02:37:27.481Z,22.87
2019-02-06T02:39:55.000Z,25.97
2019-02-06T02:42:21.559Z,36.23
2019-02-06T02:44:48.069Z,36.58
2019-02-06T02:47:14.723Z,40.73
2019-02-06T02:49:41.567Z,40.08
2019-02-06T02:52:08.079Z,40.03
2019-02-06T02:54:34.934Z,35.38
2019-02-06T02:57:02.000Z,46.83
2019-02-06T02:59:29.154Z,42.15
2019-02-06T03:02:09.651Z,38.83
2019-02-06T03:04:36.315Z,44.75
2019-02-06T03:07:03.300Z,38.10
2019-02-06T03:09:29.923Z,38.48
2019-02-06T03:11:56.458Z,36.63
2019-02-06T03:14:23.256Z,37.42
2019-02-06T03:16:49.769Z,43.50
2019-02-06T03:19:16.582Z,43.20
2019-02-06T03:21:44.106Z,39.15
2019-02-06T03:24:10.955Z,42.98
2019-02-06T03:26:37.414Z,37.33
2019-02-06T03:29:04.295Z,42.08
2019-02-06T03:31:30.956Z,31.20
2019-02-06T03:33:57.498Z,37.10
2019-02-06T03:36:25.475Z,30.15
2019-02-06T03:38:52.022Z,41.90
2019-02-06T03:41:18.654Z,42.20
2019-02-06T03:43:45.328Z,40.98
2019-02-06T03:46:11.864Z,34.35
2019-02-06T03:48:38.392Z,33.73
2019-02-06T03:51:05.615Z,39.88
2019-02-06T03:53:32.685Z,39.45
2019-02-06T03:55:59.505Z,30.27
2019-02-06T03:58:26.317Z,29.32
2019-02-06T04:00:53.113Z,32.05
2019-02-06T04:03:19.631Z,29.75
2019-02-06T04:05:46.460Z,30.30
2019-02-06T04:08:13.273Z,33.15
2019-02-06T04:10:39.821Z,23.60
2019-02-06T04:13:06.456Z,27.07
2019-02-06T04:15:33.336Z,29.27
2019-02-06T04:18:01.018Z,29.63
2019-02-06T04:20:27.544Z,26.73
2019-02-06T04:22:54.106Z,32.75
2019-02-06T04:25:20.629Z,34.70
2019-02-06T04:27:47.964Z,39.78
2019-02-06T04:30:17.375Z,38.90
2019-02-06T04:32:43.946Z,37.28
2019-02-06T04:35:12.160Z,41.08
2019-02-06T04:37:39.076Z,37.90
2019-02-06T04:40:10.013Z,33.13
2019-02-06T04:42:36.605Z,31.37
2019-02-06T04:45:17.917Z,35.23
2019-02-06T04:47:44.883Z,38.73
2019-02-06T04:50:13.977Z,40.95
2019-02-06T04:52:40.792Z,38.20
2019-02-06T04:55:10.941Z,40.03
2019-02-06T04:57:41.855Z,41.60
2019-02-06T05:00:12.210Z,30.65
2019-02-06T05:02:39.252Z,42.33
2019-02-06T05:05:07.221Z,44.15
2019-02-06T05:07:33.732Z,47.35
2019-02-06T05:10:00.602Z,41.02
2019-02-06T05:12:27.136Z,36.60
2019-02-06T05:14:59.289Z,34.15
2019-02-06T05:17:30.247Z,35.88
2019-02-06T05:19:58.859Z,31.85
2019-02-06T05:22:25.491Z,34.98
2019-02-06T05:24:52.183Z,37.28
2019-02-06T05:27:26.553Z,43.35
2019-02-06T05:29:53.125Z,44.40
2019-02-06T05:32:20.101Z,50.63
2019-02-06T05:34:46.962Z,43.42
2019-02-06T05:37:13.762Z,41.83
2019-02-06T05:39:40.311Z,45.43
2019-02-06T05:42:06.947Z,47.30
2019-02-06T05:44:33.453Z,48.08
2019-02-06T05:47:01.050Z,39.92
2019-02-06T05:49:27.589Z,47.55
2019-02-06T05:51:54.448Z,41.02
2019-02-06T05:54:20.970Z,46.33
2019-02-06T05:56:47.507Z,52.35
2019-02-06T05:59:14.049Z,49.45
2019-02-06T06:01:40.833Z,45.98
2019-02-06T06:04:07.563Z,42.08
2019-02-06T06:06:34.238Z,42.30
2019-02-06T06:09:00.938Z,45.65
2019-02-06T06:11:27.433Z,45.70
2019-02-06T06:13:54.251Z,47.17
2019-02-06T06:16:20.779Z,51.42
2019-02-06T06:18:47.389Z,49.08
2019-02-06T06:21:14.372Z,52.62
2019-02-06T06:23:40.901Z,41.15
2019-02-06T06:26:07.842Z,43.23
2019-02-06T06:28:34.345Z,36.93
2019-02-06T06:31:01.172Z,41.80
2019-02-06T06:33:27.683Z,37.20
2019-02-06T06:35:54.501Z,41.70
2019-02-06T06:38:21.059Z,39.60
2019-02-06T06:40:47.600Z,35.17
2019-02-06T06:43:16.353Z,31.42
2019-02-06T06:45:42.793Z,33.90
2019-02-06T06:48:09.301Z,32.45
2019-02-06T06:50:35.834Z,28.75
2019-02-06T06:53:02.762Z,25.65
2019-02-06T06:55:29.303Z,28.35
2019-02-06T06:57:55.918Z,46.95
2019-02-06T07:00:27.426Z,44.65
2019-02-06T07:02:54.416Z,40.23
2019-02-06T07:05:21.064Z,43.42
2019-02-06T07:07:47.572Z,41.73
2019-02-06T07:10:15.653Z,38.58
2019-02-06T07:12:42.561Z,44.63
2019-02-06T07:15:12.396Z,45.35
2019-02-06T07:17:39.305Z,49.18
2019-02-06T07:20:09.696Z,42.00
2019-02-06T07:22:36.227Z,35.65
2019-02-06T07:25:04.697Z,36.65
2019-02-06T07:27:31.533Z,47.30
2019-02-06T07:29:58.212Z,38.63
2019-02-06T07:32:24.793Z,35.92
2019-02-06T07:34:51.311Z,42.93
2019-02-06T07:37:18.019Z,34.85
2019-02-06T07:39:44.951Z,36.05
2019-02-06T07:42:11.796Z,36.58
2019-02-06T07:44:38.585Z,34.10
2019-02-06T07:47:05.214Z,31.02
2019-02-06T07:49:31.803Z,40.60
2019-02-06T07:51:58.311Z,35.73
2019-02-06T07:54:24.832Z,39.55
2019-02-06T07:56:51.338Z,35.05
2019-02-06T07:59:17.868Z,30.92
2019-02-06T08:01:44.400Z,35.05
2019-02-06T08:04:10.944Z,38.53
2019-02-06T08:06:37.498Z,36.60
2019-02-06T08:09:05.833Z,38.30
2019-02-06T08:11:32.334Z,31.82
2019-02-06T08:13:59.104Z,32.60
2019-02-06T08:16:25.855Z,36.08
2019-02-06T08:18:52.675Z,35.93
2019-02-06T08:21:19.190Z,34.57
2019-02-06T08:23:46.003Z,33.08
2019-02-06T08:26:13.520Z,30.68
2019-02-06T08:28:40.172Z,33.25
2019-02-06T08:31:06.686Z,35.30
2019-02-06T08:33:33.520Z,30.17
2019-02-06T08:36:00.292Z,35.68
2019-02-06T08:38:27.094Z,40.48
2019-02-06T08:40:53.597Z,35.03
2019-02-06T08:43:20.134Z,31.55
2019-02-06T08:45:47.162Z,32.73
2019-02-06T08:48:13.920Z,36.15
2019-02-06T08:50:40.524Z,35.20
2019-02-06T08:53:07.179Z,30.17
2019-02-06T08:55:34.214Z,29.13
2019-02-06T08:58:02.479Z,31.60
2019-02-06T09:00:31.326Z,32.07
2019-02-06T09:02:58.071Z,28.40
2019-02-06T09:05:24.984Z,30.57
2019-02-06T09:07:51.823Z,28.77
2019-02-06T09:10:26.415Z,34.60
2019-02-06T09:12:54.060Z,28.00
2019-02-06T09:15:20.779Z,28.93
2019-02-06T09:17:48.312Z,28.03
2019-02-06T09:20:18.051Z,24.27
2019-02-06T09:22:44.696Z,25.63
2019-02-06T09:25:14.389Z,27.30
2019-02-06T09:27:40.930Z,26.80
2019-02-06T09:30:11.283Z,27.03
2019-02-06T09:32:38.933Z,29.10
2019-02-06T09:35:06.673Z,26.20
2019-02-06T09:37:33.352Z,24.20
2019-02-06T09:40:00.338Z,26.67
2019-02-06T09:42:27.136Z,28.10
2019-02-06T09:44:54.006Z,27.77
2019-02-06T09:47:20.825Z,26.57
2019-02-06T09:49:49.816Z,26.30
2019-02-06T09:52:17.885Z,25.77
2019-02-06T09:54:44.745Z,23.07
2019-02-06T09:57:12.418Z,23.97
2019-02-06T09:59:39.926Z,22.07
2019-02-06T10:02:09.433Z,24.93
2019-02-06T10:04:34.917Z,22.53
2019-02-06T10:07:05.101Z,24.93
2019-02-06T10:09:31.964Z,22.20
2019-02-06T10:11:58.393Z,22.90
2019-02-06T10:14:24.934Z,20.47
2019-02-06T10:16:51.760Z,21.00
2019-02-06T10:19:18.488Z,21.27
2019-02-06T10:21:45.025Z,23.73
2019-02-06T10:24:11.766Z,22.17
2019-02-06T10:26:38.362Z,25.13
2019-02-06T10:29:05.078Z,25.07
2019-02-06T10:31:32.928Z,23.13
2019-02-06T10:33:59.552Z,22.90
2019-02-06T10:36:26.187Z,25.70
2019-02-06T10:38:53.063Z,25.77
2019-02-06T10:41:19.570Z,22.43
2019-02-06T10:43:46.467Z,22.83
2019-02-06T10:46:14.432Z,24.70
2019-02-06T10:48:43.727Z,22.30
2019-02-06T10:51:09.653Z,25.97
2019-02-06T10:53:36.205Z,22.67
2019-02-06T10:56:03.310Z,23.07
2019-02-06T10:58:30.191Z,22.57
2019-02-06T11:00:57.076Z,25.77
2019-02-06T11:03:23.952Z,22.20
2019-02-06T11:05:51.772Z,24.97
2019-02-06T11:08:18.477Z,24.17
2019-02-06T11:10:45.464Z,23.90
2019-02-06T11:13:12.801Z,20.03
2019-02-06T11:15:39.437Z,23.93
2019-02-06T11:18:06.272Z,22.53
2019-02-06T11:20:37.886Z,25.20
2019-02-06T11:23:05.749Z,21.57
2019-02-06T11:25:33.620Z,21.20
2019-02-06T11:28:00.153Z,19.57
2019-02-06T11:30:36.061Z,21.50
2019-02-06T11:33:03.815Z,22.43
2019-02-06T11:35:30.325Z,23.23
2019-02-06T11:37:56.825Z,27.73
2019-02-06T11:40:23.975Z,26.43
2019-02-06T11:42:51.477Z,27.77
2019-02-06T11:45:21.326Z,24.73
2019-02-06T11:47:48.053Z,22.93
2019-02-06T11:50:16.968Z,23.80
2019-02-06T11:52:43.891Z,26.83
2019-02-06T11:55:16.494Z,23.60
2019-02-06T11:57:43.462Z,25.70
2019-02-06T12:00:14.013Z,23.73
2019-02-06T12:02:41.138Z,25.27
2019-02-06T12:05:09.013Z,24.90
2019-02-06T12:07:35.649Z,28.17
2019-02-06T12:10:10.243Z,27.53
2019-02-06T12:12:37.187Z,25.47
2019-02-06T12:15:07.866Z,24.43
2019-02-06T12:17:34.411Z,25.27
2019-02-06T12:20:01.256Z,25.27
2019-02-06T12:22:28.060Z,24.63
2019-02-06T12:24:54.883Z,25.80
2019-02-06T12:27:21.687Z,24.67
2019-02-06T12:29:48.496Z,25.20
2019-02-06T12:32:15.008Z,27.33
2019-02-06T12:34:41.811Z,27.57
2019-02-06T12:37:08.604Z,29.67
2019-02-06T12:39:35.543Z,26.37
2019-02-06T12:42:03.474Z,27.53
2019-02-06T12:44:30.682Z,23.67
2019-02-06T12:46:57.456Z,26.13
2019-02-06T12:49:24.340Z,27.77
2019-02-06T12:51:52.560Z,27.90
2019-02-06T12:54:20.192Z,25.40
2019-02-06T12:56:46.812Z,23.57
2019-02-06T12:59:13.638Z,28.07
2019-02-06T13:01:40.902Z,27.67
2019-02-06T13:04:07.560Z,30.07
2019-02-06T13:06:34.072Z,26.43
2019-02-06T13:09:00.589Z,28.70
2019-02-06T13:11:27.135Z,29.27
2019-02-06T13:13:53.737Z,25.30
2019-02-06T13:16:20.261Z,27.43
2019-02-06T13:18:47.080Z,26.77
2019-02-06T13:21:13.853Z,26.60
2019-02-06T13:23:41.456Z,25.80
2019-02-06T13:26:08.454Z,25.50
2019-02-06T13:28:35.327Z,27.07
2019-02-06T13:31:01.956Z,29.53
2019-02-06T13:33:28.800Z,28.30
2019-02-06T13:35:55.527Z,30.53
2019-02-06T13:38:23.137Z,27.90
2019-02-06T13:40:50.201Z,28.40
2019-02-06T13:43:16.821Z,36.40
2019-02-06T13:45:46.006Z,39.87
2019-02-06T13:48:12.715Z,38.80
2019-02-06T13:50:39.449Z,30.80
2019-02-06T13:53:06.370Z,31.40
2019-02-06T13:55:33.138Z,27.40
2019-02-06T13:57:59.793Z,30.87
2019-02-06T14:00:31.551Z,30.70
2019-02-06T14:02:58.699Z,31.67
2019-02-06T14:05:30.772Z,30.47
2019-02-06T14:07:59.966Z,30.67
2019-02-06T14:10:31.149Z,31.23
2019-02-06T14:12:58.808Z,30.87
2019-02-06T14:15:30.222Z,26.90
2019-02-06T14:18:01.449Z,27.23
2019-02-06T14:20:35.404Z,31.00
2019-02-06T14:23:05.820Z,25.70
2019-02-06T14:25:45.444Z,27.20
2019-02-06T14:28:25.548Z,27.73
2019-02-06T14:31:08.360Z,28.60
2019-02-06T14:33:38.733Z,31.03
2019-02-06T14:36:35.476Z,29.20
2019-02-06T14:39:33.181Z,29.13
2019-02-06T14:42:15.678Z,27.83
2019-02-06T14:44:55.337Z,28.13
2019-02-06T14:47:38.937Z,26.27
2019-02-06T14:50:28.963Z,29.60
2019-02-06T14:53:14.226Z,30.23
2019-02-06T14:55:50.602Z,30.70
2019-02-06T14:58:30.059Z,42.53
2019-02-06T15:01:31.648Z,30.63
2019-02-06T15:04:12.697Z,41.87
2019-02-06T15:06:58.104Z,33.17
2019-02-06T15:10:01.792Z,29.37
2019-02-06T15:12:41.015Z,26.87
2019-02-06T15:15:11.425Z,28.87
2019-02-06T15:18:02.959Z,29.47
2019-02-06T15:20:49.821Z,26.87
2019-02-06T15:23:33.592Z,33.83
2019-02-06T15:26:19.450Z,29.73
2019-02-06T15:28:57.024Z,28.23
2019-02-06T15:31:53.126Z,27.67
2019-02-06T15:34:32.234Z,42.47
2019-02-06T15:37:20.721Z,32.53
2019-02-06T15:40:12.863Z,29.83
2019-02-06T15:42:59.458Z,27.73
2019-02-06T15:45:45.348Z,29.50
2019-02-06T15:48:24.740Z,32.40
2019-02-06T15:51:12.080Z,29.87
2019-02-06T15:53:42.673Z,27.53
2019-02-06T15:56:19.475Z,33.00
2019-02-06T15:59:00.950Z,28.23
2019-02-06T16:01:57.127Z,30.37
2019-02-06T16:04:34.947Z,32.10
2019-02-06T16:07:39.062Z,29.43
2019-02-06T16:10:42.801Z,29.80
2019-02-06T16:13:35.910Z,29.50
2019-02-06T16:16:18.453Z,30.13
2019-02-06T16:19:03.957Z,33.53
2019-02-06T16:21:37.041Z,34.53
2019-02-06T16:24:13.576Z,31.37
2019-02-06T16:26:43.916Z,32.73
2019-02-06T16:29:30.853Z,32.37
2019-02-06T16:32:16.335Z,34.23
2019-02-06T16:34:53.419Z,28.77
2019-02-06T16:37:49.437Z,30.10
2019-02-06T16:40:31.217Z,33.17
2019-02-06T16:43:16.455Z,33.90
2019-02-06T16:46:18.446Z,30.13
2019-02-06T16:48:57.784Z,27.93
2019-02-06T16:51:28.265Z,28.40
2019-02-06T16:53:58.695Z,31.83
2019-02-06T16:56:35.228Z,36.60
2019-02-06T16:59:12.616Z,36.57
2019-02-06T17:02:04.045Z,31.47
2019-02-06T17:04:37.344Z,28.87
2019-02-06T17:07:23.000Z,32.67
2019-02-06T17:09:59.163Z,37.57
2019-02-06T17:12:44.598Z,68.70
2019-02-06T17:15:43.752Z,54.70
2019-02-06T17:18:17.204Z,42.83
2019-02-06T17:20:59.101Z,48.50
2019-02-06T17:23:55.164Z,49.23
2019-02-06T17:26:46.963Z,54.63
2019-02-06T17:29:41.717Z,42.63
2019-02-06T17:32:40.950Z,50.77
2019-02-06T17:35:41.870Z,45.73
2019-02-06T17:38:18.053Z,40.63
2019-02-06T17:41:03.332Z,31.70
2019-02-06T17:43:39.806Z,33.90
2019-02-06T17:46:13.335Z,38.60
2019-02-06T17:48:51.488Z,31.60
2019-02-06T17:51:30.833Z,29.10
2019-02-06T17:54:17.065Z,26.70
2019-02-06T17:56:44.877Z,27.80
2019-02-06T17:59:11.392Z,25.17
2019-02-06T18:01:38.248Z,33.53
2019-02-06T18:04:05.064Z,30.17
2019-02-06T18:06:31.915Z,31.40
2019-02-06T18:08:58.751Z,45.73
2019-02-06T18:11:25.427Z,42.97
2019-02-06T18:13:54.217Z,39.03
2019-02-06T18:16:21.655Z,36.97
2019-02-06T18:18:48.451Z,33.67
2019-02-06T18:21:14.966Z,27.30
2019-02-06T18:23:41.543Z,28.70
2019-02-06T18:26:08.352Z,34.73
2019-02-06T18:28:36.965Z,42.60
2019-02-06T18:31:04.190Z,41.35
2019-02-06T18:33:30.815Z,34.92
2019-02-06T18:35:57.432Z,28.32
2019-02-06T18:38:23.984Z,23.45
2019-02-06T18:40:51.661Z,32.90
2019-02-06T18:43:18.469Z,36.42
2019-02-06T18:45:45.412Z,31.65
2019-02-06T18:48:11.991Z,30.52
2019-02-06T18:50:39.638Z,27.00
2019-02-06T18:53:07.430Z,27.50
2019-02-06T18:55:34.242Z,25.57
2019-02-06T18:58:00.989Z,29.70
2019-02-06T19:00:33.221Z,37.10
2019-02-06T19:03:03.411Z,36.25
2019-02-06T19:05:34.042Z,38.80
2019-02-06T19:08:00.711Z,33.83
2019-02-06T19:10:27.526Z,39.20
2019-02-06T19:12:54.286Z,42.78
2019-02-06T19:15:23.009Z,42.67
2019-02-06T19:17:50.788Z,40.33
2019-02-06T19:20:18.119Z,35.78
2019-02-06T19:22:45.152Z,36.58
2019-02-06T19:25:13.702Z,35.73
2019-02-06T19:27:40.229Z,36.17
2019-02-06T19:30:24.929Z,25.97
2019-02-06T19:32:52.089Z,27.73
2019-02-06T19:35:19.739Z,27.35
2019-02-06T19:37:48.375Z,28.60
2019-02-06T19:40:16.850Z,25.23
2019-02-06T19:42:43.403Z,27.33
2019-02-06T19:45:14.721Z,40.43
2019-02-06T19:47:41.374Z,87.92
2019-02-06T19:50:27.899Z,48.63
2019-02-06T19:52:54.819Z,37.67
2019-02-06T19:55:21.703Z,45.73
2019-02-06T19:57:48.529Z,33.53
2019-02-06T20:00:18.523Z,38.40
2019-02-06T20:02:45.516Z,32.65
2019-02-06T20:05:14.665Z,36.03
2019-02-06T20:07:42.689Z,39.67
2019-02-06T20:10:13.275Z,41.10
2019-02-06T20:12:40.819Z,39.10
2019-02-06T20:15:09.022Z,33.85
2019-02-06T20:17:35.719Z,33.20
2019-02-06T20:20:05.647Z,33.83
2019-02-06T20:22:32.465Z,32.63
2019-02-06T20:24:59.016Z,21.87
2019-02-06T20:27:25.934Z,22.40
2019-02-06T20:29:52.443Z,26.00
2019-02-06T20:32:19.250Z,26.57
2019-02-06T20:34:45.795Z,33.28
2019-02-06T20:37:12.468Z,28.10
2019-02-06T20:39:39.041Z,31.97
2019-02-06T20:42:05.547Z,38.83
2019-02-06T20:44:32.089Z,25.48
2019-02-06T20:46:58.617Z,28.17
2019-02-06T20:49:25.182Z,22.62
2019-02-06T20:51:52.021Z,21.77
2019-02-06T20:54:18.794Z,24.75
2019-02-06T20:56:45.610Z,23.87
2019-02-06T20:59:12.545Z,23.07
2019-02-06T21:01:39.389Z,24.10
2019-02-06T21:04:06.289Z,37.75
2019-02-06T21:06:33.947Z,27.37
2019-02-06T21:09:00.486Z,28.27
2019-02-06T21:11:27.304Z,25.17
2019-02-06T21:13:53.837Z,26.80
2019-02-06T21:16:20.750Z,26.50
2019-02-06T21:18:47.289Z,27.58
2019-02-06T21:21:13.841Z,25.75
2019-02-06T21:23:40.704Z,21.93
2019-02-06T21:26:07.551Z,20.20
2019-02-06T21:28:34.512Z,23.15
2019-02-06T21:31:01.473Z,17.98
2019-02-06T21:33:28.017Z,20.43
2019-02-06T21:35:54.555Z,17.92
2019-02-06T21:38:21.383Z,16.30
2019-02-06T21:40:47.898Z,19.07
2019-02-06T21:43:14.874Z,21.35
2019-02-06T21:45:42.415Z,22.95
2019-02-06T21:48:09.033Z,29.92
2019-02-06T21:50:35.869Z,20.87
2019-02-06T21:53:02.578Z,21.70
2019-02-06T21:55:29.613Z,20.47
2019-02-06T21:57:56.439Z,24.40
2019-02-06T22:00:28.055Z,26.95
2019-02-06T22:02:54.956Z,25.25
2019-02-06T22:05:22.813Z,25.35
2019-02-06T22:07:49.732Z,28.15
2019-02-06T22:10:18.006Z,24.47
2019-02-06T22:12:44.940Z,19.00
2019-02-06T22:15:14.284Z,22.50
2019-02-06T22:17:40.795Z,24.15
2019-02-06T22:20:08.443Z,25.80
2019-02-06T22:22:35.056Z,22.95
2019-02-06T22:25:03.236Z,20.72
2019-02-06T22:27:31.127Z,27.13
2019-02-06T22:29:57.665Z,28.73
2019-02-06T22:32:24.327Z,26.62
2019-02-06T22:34:51.144Z,28.47
2019-02-06T22:37:17.757Z,24.20
2019-02-06T22:39:44.295Z,31.07
2019-02-06T22:42:10.844Z,29.40
2019-02-06T22:44:37.439Z,29.25
2019-02-06T22:47:04.285Z,24.07
2019-02-06T22:49:31.152Z,22.90
2019-02-06T22:51:57.671Z,31.17
2019-02-06T22:54:24.446Z,32.03
2019-02-06T22:56:51.291Z,31.23
2019-02-06T22:59:18.001Z,39.13
2019-02-06T23:01:46.700Z,32.98
2019-02-06T23:04:13.557Z,32.93
2019-02-06T23:06:40.436Z,44.00
2019-02-06T23:09:07.275Z,45.52
2019-02-06T23:11:34.008Z,36.77
2019-02-06T23:14:00.788Z,28.55
2019-02-06T23:16:27.712Z,34.55
2019-02-06T23:18:54.345Z,34.35
2019-02-06T23:21:21.101Z,37.73
2019-02-06T23:23:47.621Z,31.23
2019-02-06T23:26:14.165Z,32.45
2019-02-06T23:28:40.707Z,35.15
2019-02-06T23:31:07.662Z,25.15
2019-02-06T23:33:34.487Z,32.30
2019-02-06T23:36:01.113Z,33.28
2019-02-06T23:38:28.919Z,32.40
2019-02-06T23:40:55.575Z,31.27
2019-02-06T23:43:23.272Z,22.05
2019-02-06T23:45:49.799Z,30.17
2019-02-06T23:48:16.729Z,33.65
2019-02-06T23:50:43.590Z,29.18
2019-02-06T23:53:10.215Z,32.33
2019-02-06T23:55:37.003Z,38.88
2019-02-06T23:58:03.943Z,28.83
